sensor_id;sensor_type;location;lat;lon;timestamp;temperature;humidity
25450;DHT22;13371;52.080;5.624;2023-04-21T00:00:56;11.80;96.60
25450;DHT22;13371;52.080;5.624;2023-04-21T00:03:23;11.70;96.80
25450;DHT22;13371;52.080;5.624;2023-04-21T00:05:50;11.20;97.90
25450;DHT22;13371;52.080;5.624;2023-04-21T00:08:17;11.20;98.50
25450;DHT22;13371;52.080;5.624;2023-04-21T00:10:43;11.50;98.20
25450;DHT22;13371;52.080;5.624;2023-04-21T00:13:09;11.50;98.10
25450;DHT22;13371;52.080;5.624;2023-04-21T00:15:35;11.50;98.90
25450;DHT22;13371;52.080;5.624;2023-04-21T00:18:00;11.50;98.50
25450;DHT22;13371;52.080;5.624;2023-04-21T00:20:27;11.50;98.50
25450;DHT22;13371;52.080;5.624;2023-04-21T00:22:53;11.50;98.60
25450;DHT22;13371;52.080;5.624;2023-04-21T00:25:18;11.60;98.80
25450;DHT22;13371;52.080;5.624;2023-04-21T00:27:44;11.60;98.80
25450;DHT22;13371;52.080;5.624;2023-04-21T00:30:10;11.80;98.40
25450;DHT22;13371;52.080;5.624;2023-04-21T00:32:36;11.50;99.00
25450;DHT22;13371;52.080;5.624;2023-04-21T00:35:01;11.60;99.20
25450;DHT22;13371;52.080;5.624;2023-04-21T00:37:27;11.60;99.00
25450;DHT22;13371;52.080;5.624;2023-04-21T00:39:53;11.40;99.60
25450;DHT22;13371;52.080;5.624;2023-04-21T00:42:18;11.40;99.90
25450;DHT22;13371;52.080;5.624;2023-04-21T00:44:45;11.20;99.90
25450;DHT22;13371;52.080;5.624;2023-04-21T00:47:10;11.40;99.90
25450;DHT22;13371;52.080;5.624;2023-04-21T00:49:36;11.60;99.90
25450;DHT22;13371;52.080;5.624;2023-04-21T00:52:04;11.60;99.60
25450;DHT22;13371;52.080;5.624;2023-04-21T00:54:30;11.70;99.90
25450;DHT22;13371;52.080;5.624;2023-04-21T00:56:56;11.70;99.80
25450;DHT22;13371;52.080;5.624;2023-04-21T00:59:23;11.60;99.90
25450;DHT22;13371;52.080;5.624;2023-04-21T01:01:48;11.80;99.90
25450;DHT22;13371;52.080;5.624;2023-04-21T01:04:14;11.50;99.90
25450;DHT22;13371;52.080;5.624;2023-04-21T01:06:40;11.50;99.90
25450;DHT22;13371;52.080;5.624;2023-04-21T01:09:06;11.70;99.90
25450;DHT22;13371;52.080;5.624;2023-04-21T01:11:32;11.60;99.90
25450;DHT22;13371;52.080;5.624;2023-04-21T01:13:58;11.20;99.90
25450;DHT22;13371;52.080;5.624;2023-04-21T01:16:24;11.30;99.90
25450;DHT22;13371;52.080;5.624;2023-04-21T01:18:51;11.20;99.90
25450;DHT22;13371;52.080;5.624;2023-04-21T01:21:18;11.30;99.90
25450;DHT22;13371;52.080;5.624;2023-04-21T01:23:44;11.40;99.90
25450;DHT22;13371;52.080;5.624;2023-04-21T01:26:10;11.60;99.90
25450;DHT22;13371;52.080;5.624;2023-04-21T01:28:36;11.60;99.90
25450;DHT22;13371;52.080;5.624;2023-04-21T01:31:02;11.60;99.90
25450;DHT22;13371;52.080;5.624;2023-04-21T01:33:27;11.50;99.90
25450;DHT22;13371;52.080;5.624;2023-04-21T01:35:54;11.70;99.90
25450;DHT22;13371;52.080;5.624;2023-04-21T01:38:21;11.30;99.90
25450;DHT22;13371;52.080;5.624;2023-04-21T01:40:49;11.40;99.90
25450;DHT22;13371;52.080;5.624;2023-04-21T01:43:17;11.40;99.90
25450;DHT22;13371;52.080;5.624;2023-04-21T01:45:43;11.60;99.90
25450;DHT22;13371;52.080;5.624;2023-04-21T01:48:08;11.50;99.90
25450;DHT22;13371;52.080;5.624;2023-04-21T01:50:34;11.40;99.90
25450;DHT22;13371;52.080;5.624;2023-04-21T01:53:00;11.30;99.90
25450;DHT22;13371;52.080;5.624;2023-04-21T01:55:25;11.40;99.90
25450;DHT22;13371;52.080;5.624;2023-04-21T01:57:51;11.40;99.90
25450;DHT22;13371;52.080;5.624;2023-04-21T02:00:16;11.70;99.90
25450;DHT22;13371;52.080;5.624;2023-04-21T02:02:42;11.50;99.90
25450;DHT22;13371;52.080;5.624;2023-04-21T02:05:08;11.80;99.90
25450;DHT22;13371;52.080;5.624;2023-04-21T02:07:33;11.80;99.90
25450;DHT22;13371;52.080;5.624;2023-04-21T02:09:59;11.90;99.90
25450;DHT22;13371;52.080;5.624;2023-04-21T02:12:24;11.70;99.90
25450;DHT22;13371;52.080;5.624;2023-04-21T02:14:50;11.40;99.90
25450;DHT22;13371;52.080;5.624;2023-04-21T02:17:16;11.70;99.90
25450;DHT22;13371;52.080;5.624;2023-04-21T02:19:42;11.60;99.90
25450;DHT22;13371;52.080;5.624;2023-04-21T02:22:07;11.50;99.90
25450;DHT22;13371;52.080;5.624;2023-04-21T02:24:35;11.70;99.90
25450;DHT22;13371;52.080;5.624;2023-04-21T02:27:00;11.60;99.90
25450;DHT22;13371;52.080;5.624;2023-04-21T02:29:26;11.60;99.90
25450;DHT22;13371;52.080;5.624;2023-04-21T02:31:52;11.40;99.90
25450;DHT22;13371;52.080;5.624;2023-04-21T02:34:17;11.60;99.90
25450;DHT22;13371;52.080;5.624;2023-04-21T02:36:43;11.70;99.90
25450;DHT22;13371;52.080;5.624;2023-04-21T02:39:08;11.60;99.90
25450;DHT22;13371;52.080;5.624;2023-04-21T02:41:34;11.80;99.90
25450;DHT22;13371;52.080;5.624;2023-04-21T02:44:00;11.90;99.90
25450;DHT22;13371;52.080;5.624;2023-04-21T02:46:25;11.90;99.90
25450;DHT22;13371;52.080;5.624;2023-04-21T02:48:51;11.70;99.90
25450;DHT22;13371;52.080;5.624;2023-04-21T02:51:16;11.70;99.90
25450;DHT22;13371;52.080;5.624;2023-04-21T02:53:42;11.90;99.90
25450;DHT22;13371;52.080;5.624;2023-04-21T02:56:08;11.70;99.90
25450;DHT22;13371;52.080;5.624;2023-04-21T02:58:37;11.70;99.90
25450;DHT22;13371;52.080;5.624;2023-04-21T03:01:03;11.50;99.90
25450;DHT22;13371;52.080;5.624;2023-04-21T03:03:30;11.40;99.90
25450;DHT22;13371;52.080;5.624;2023-04-21T03:06:01;11.20;99.90
25450;DHT22;13371;52.080;5.624;2023-04-21T03:08:27;11.40;99.90
25450;DHT22;13371;52.080;5.624;2023-04-21T03:10:53;11.20;99.90
25450;DHT22;13371;52.080;5.624;2023-04-21T03:13:18;11.20;99.90
25450;DHT22;13371;52.080;5.624;2023-04-21T03:15:44;10.90;99.90
25450;DHT22;13371;52.080;5.624;2023-04-21T03:18:11;11.00;99.90
25450;DHT22;13371;52.080;5.624;2023-04-21T03:20:36;11.20;99.90
25450;DHT22;13371;52.080;5.624;2023-04-21T03:23:02;11.50;99.90
25450;DHT22;13371;52.080;5.624;2023-04-21T03:25:27;11.60;99.90
25450;DHT22;13371;52.080;5.624;2023-04-21T03:27:54;11.70;99.90
25450;DHT22;13371;52.080;5.624;2023-04-21T03:30:20;11.70;99.90
25450;DHT22;13371;52.080;5.624;2023-04-21T03:32:46;11.50;99.90
25450;DHT22;13371;52.080;5.624;2023-04-21T03:35:12;11.70;99.90
25450;DHT22;13371;52.080;5.624;2023-04-21T03:37:37;11.40;99.90
25450;DHT22;13371;52.080;5.624;2023-04-21T03:40:03;11.60;99.90
25450;DHT22;13371;52.080;5.624;2023-04-21T03:42:33;11.80;99.90
25450;DHT22;13371;52.080;5.624;2023-04-21T03:45:03;11.70;99.90
25450;DHT22;13371;52.080;5.624;2023-04-21T03:47:28;11.40;99.90
25450;DHT22;13371;52.080;5.624;2023-04-21T03:49:54;11.40;99.90
25450;DHT22;13371;52.080;5.624;2023-04-21T03:52:20;11.10;99.90
25450;DHT22;13371;52.080;5.624;2023-04-21T03:54:45;11.00;99.90
25450;DHT22;13371;52.080;5.624;2023-04-21T03:57:11;11.30;99.90
25450;DHT22;13371;52.080;5.624;2023-04-21T03:59:37;11.20;99.90
25450;DHT22;13371;52.080;5.624;2023-04-21T04:02:02;11.40;99.90
25450;DHT22;13371;52.080;5.624;2023-04-21T04:04:28;11.30;99.90
25450;DHT22;13371;52.080;5.624;2023-04-21T04:06:53;11.10;99.90
25450;DHT22;13371;52.080;5.624;2023-04-21T04:09:19;11.40;99.90
25450;DHT22;13371;52.080;5.624;2023-04-21T04:11:44;11.60;99.90
25450;DHT22;13371;52.080;5.624;2023-04-21T04:14:10;11.60;99.90
25450;DHT22;13371;52.080;5.624;2023-04-21T04:16:36;11.60;99.90
25450;DHT22;13371;52.080;5.624;2023-04-21T04:19:01;11.70;99.90
25450;DHT22;13371;52.080;5.624;2023-04-21T04:21:28;11.40;99.90
25450;DHT22;13371;52.080;5.624;2023-04-21T04:23:54;11.60;99.90
25450;DHT22;13371;52.080;5.624;2023-04-21T04:26:20;11.50;99.90
25450;DHT22;13371;52.080;5.624;2023-04-21T04:28:49;11.30;99.90
25450;DHT22;13371;52.080;5.624;2023-04-21T04:31:15;11.20;99.90
25450;DHT22;13371;52.080;5.624;2023-04-21T04:33:41;11.00;99.90
25450;DHT22;13371;52.080;5.624;2023-04-21T04:36:07;11.00;99.90
25450;DHT22;13371;52.080;5.624;2023-04-21T04:38:33;11.30;99.90
25450;DHT22;13371;52.080;5.624;2023-04-21T04:41:02;11.50;99.90
25450;DHT22;13371;52.080;5.624;2023-04-21T04:43:29;11.30;99.90
25450;DHT22;13371;52.080;5.624;2023-04-21T04:45:58;11.20;99.90
25450;DHT22;13371;52.080;5.624;2023-04-21T04:48:24;11.20;99.90
25450;DHT22;13371;52.080;5.624;2023-04-21T04:50:50;11.10;99.90
25450;DHT22;13371;52.080;5.624;2023-04-21T04:53:16;11.20;99.90
25450;DHT22;13371;52.080;5.624;2023-04-21T04:55:41;11.20;99.90
25450;DHT22;13371;52.080;5.624;2023-04-21T04:58:07;11.00;99.90
25450;DHT22;13371;52.080;5.624;2023-04-21T05:00:33;11.00;99.90
25450;DHT22;13371;52.080;5.624;2023-04-21T05:02:58;11.30;99.90
25450;DHT22;13371;52.080;5.624;2023-04-21T05:05:24;11.30;99.90
25450;DHT22;13371;52.080;5.624;2023-04-21T05:07:52;11.40;99.90
25450;DHT22;13371;52.080;5.624;2023-04-21T05:10:18;11.30;99.90
25450;DHT22;13371;52.080;5.624;2023-04-21T05:12:43;11.10;99.90
25450;DHT22;13371;52.080;5.624;2023-04-21T05:15:09;11.10;99.90
25450;DHT22;13371;52.080;5.624;2023-04-21T05:17:35;11.30;99.90
25450;DHT22;13371;52.080;5.624;2023-04-21T05:20:02;11.60;99.90
25450;DHT22;13371;52.080;5.624;2023-04-21T05:22:28;11.30;99.90
25450;DHT22;13371;52.080;5.624;2023-04-21T05:24:54;11.30;99.90
25450;DHT22;13371;52.080;5.624;2023-04-21T05:27:19;11.30;99.90
25450;DHT22;13371;52.080;5.624;2023-04-21T05:29:45;11.40;99.90
25450;DHT22;13371;52.080;5.624;2023-04-21T05:32:11;11.60;99.90
25450;DHT22;13371;52.080;5.624;2023-04-21T05:34:37;11.70;99.90
25450;DHT22;13371;52.080;5.624;2023-04-21T05:37:03;11.60;99.90
25450;DHT22;13371;52.080;5.624;2023-04-21T05:39:29;11.60;99.90
25450;DHT22;13371;52.080;5.624;2023-04-21T05:41:54;11.70;99.90
25450;DHT22;13371;52.080;5.624;2023-04-21T05:44:20;11.80;99.90
25450;DHT22;13371;52.080;5.624;2023-04-21T05:46:46;11.70;99.90
25450;DHT22;13371;52.080;5.624;2023-04-21T05:49:11;11.60;99.90
25450;DHT22;13371;52.080;5.624;2023-04-21T05:51:37;11.80;99.90
25450;DHT22;13371;52.080;5.624;2023-04-21T05:54:03;11.80;99.90
25450;DHT22;13371;52.080;5.624;2023-04-21T05:56:28;12.00;99.90
25450;DHT22;13371;52.080;5.624;2023-04-21T05:58:54;11.80;99.90
25450;DHT22;13371;52.080;5.624;2023-04-21T06:01:19;11.60;99.90
25450;DHT22;13371;52.080;5.624;2023-04-21T06:03:45;11.80;99.90
25450;DHT22;13371;52.080;5.624;2023-04-21T06:06:14;11.70;99.90
25450;DHT22;13371;52.080;5.624;2023-04-21T06:08:40;11.70;99.90
25450;DHT22;13371;52.080;5.624;2023-04-21T06:11:06;11.80;99.90
25450;DHT22;13371;52.080;5.624;2023-04-21T06:13:34;12.00;99.90
25450;DHT22;13371;52.080;5.624;2023-04-21T06:16:03;12.00;99.90
25450;DHT22;13371;52.080;5.624;2023-04-21T06:18:29;12.00;99.90
25450;DHT22;13371;52.080;5.624;2023-04-21T06:20:57;12.20;99.90
25450;DHT22;13371;52.080;5.624;2023-04-21T06:23:25;12.40;99.90
25450;DHT22;13371;52.080;5.624;2023-04-21T06:26:01;12.40;99.90
25450;DHT22;13371;52.080;5.624;2023-04-21T06:28:33;12.40;99.90
25450;DHT22;13371;52.080;5.624;2023-04-21T06:31:00;12.50;99.90
25450;DHT22;13371;52.080;5.624;2023-04-21T06:33:28;12.40;99.90
25450;DHT22;13371;52.080;5.624;2023-04-21T06:35:55;12.40;99.90
25450;DHT22;13371;52.080;5.624;2023-04-21T06:38:23;12.00;99.90
25450;DHT22;13371;52.080;5.624;2023-04-21T06:40:49;12.00;99.90
25450;DHT22;13371;52.080;5.624;2023-04-21T06:43:15;11.80;99.90
25450;DHT22;13371;52.080;5.624;2023-04-21T06:45:56;11.90;99.90
25450;DHT22;13371;52.080;5.624;2023-04-21T06:48:24;12.20;99.90
25450;DHT22;13371;52.080;5.624;2023-04-21T06:50:51;12.30;99.90
25450;DHT22;13371;52.080;5.624;2023-04-21T06:53:16;12.50;99.90
25450;DHT22;13371;52.080;5.624;2023-04-21T06:55:48;12.70;99.90
25450;DHT22;13371;52.080;5.624;2023-04-21T06:58:13;12.80;99.90
25450;DHT22;13371;52.080;5.624;2023-04-21T07:00:53;12.90;99.90
25450;DHT22;13371;52.080;5.624;2023-04-21T07:03:18;12.60;99.90
25450;DHT22;13371;52.080;5.624;2023-04-21T07:06:10;12.60;99.90
25450;DHT22;13371;52.080;5.624;2023-04-21T07:12:03;12.20;99.90
25450;DHT22;13371;52.080;5.624;2023-04-21T07:14:31;12.70;99.90
25450;DHT22;13371;52.080;5.624;2023-04-21T07:17:08;13.10;99.90
25450;DHT22;13371;52.080;5.624;2023-04-21T07:19:49;13.30;99.90
25450;DHT22;13371;52.080;5.624;2023-04-21T07:22:35;13.70;99.90
25450;DHT22;13371;52.080;5.624;2023-04-21T07:28:30;12.70;99.90
25450;DHT22;13371;52.080;5.624;2023-04-21T07:31:01;12.90;99.90
25450;DHT22;13371;52.080;5.624;2023-04-21T07:34:21;12.80;99.90
25450;DHT22;13371;52.080;5.624;2023-04-21T07:37:04;13.20;99.90
25450;DHT22;13371;52.080;5.624;2023-04-21T07:43:28;13.20;99.90
25450;DHT22;13371;52.080;5.624;2023-04-21T07:46:02;13.40;99.90
25450;DHT22;13371;52.080;5.624;2023-04-21T07:48:28;13.60;99.90
25450;DHT22;13371;52.080;5.624;2023-04-21T07:51:33;13.70;99.90
25450;DHT22;13371;52.080;5.624;2023-04-21T08:18:52;12.90;99.90
25450;DHT22;13371;52.080;5.624;2023-04-21T09:32:06;14.10;99.90
25450;DHT22;13371;52.080;5.624;2023-04-21T09:46:47;14.70;99.90
25450;DHT22;13371;52.080;5.624;2023-04-21T09:53:25;14.70;99.90
25450;DHT22;13371;52.080;5.624;2023-04-21T10:02:55;14.20;99.90
25450;DHT22;13371;52.080;5.624;2023-04-21T10:12:14;14.20;99.90
25450;DHT22;13371;52.080;5.624;2023-04-21T11:21:34;16.00;96.00
25450;DHT22;13371;52.080;5.624;2023-04-21T11:24:00;15.50;98.90
25450;DHT22;13371;52.080;5.624;2023-04-21T11:26:32;15.50;97.80
25450;DHT22;13371;52.080;5.624;2023-04-21T11:29:03;14.60;99.90
25450;DHT22;13371;52.080;5.624;2023-04-21T11:31:30;15.10;99.90
25450;DHT22;13371;52.080;5.624;2023-04-21T11:33:58;14.90;99.90
25450;DHT22;13371;52.080;5.624;2023-04-21T11:36:24;15.20;99.90
25450;DHT22;13371;52.080;5.624;2023-04-21T11:38:50;15.40;98.70
25450;DHT22;13371;52.080;5.624;2023-04-21T11:41:24;15.10;99.90
25450;DHT22;13371;52.080;5.624;2023-04-21T11:43:58;14.90;99.90
25450;DHT22;13371;52.080;5.624;2023-04-21T11:46:26;15.30;99.90
25450;DHT22;13371;52.080;5.624;2023-04-21T11:49:00;15.90;99.90
25450;DHT22;13371;52.080;5.624;2023-04-21T11:51:43;15.90;98.30
25450;DHT22;13371;52.080;5.624;2023-04-21T11:54:12;16.20;97.50
25450;DHT22;13371;52.080;5.624;2023-04-21T11:56:48;16.30;97.50
25450;DHT22;13371;52.080;5.624;2023-04-21T12:02:53;16.70;96.40
25450;DHT22;13371;52.080;5.624;2023-04-21T12:05:21;16.30;96.60
25450;DHT22;13371;52.080;5.624;2023-04-21T12:07:49;16.20;96.70
25450;DHT22;13371;52.080;5.624;2023-04-21T12:10:30;16.50;96.80
25450;DHT22;13371;52.080;5.624;2023-04-21T12:13:02;16.60;96.20
25450;DHT22;13371;52.080;5.624;2023-04-21T12:15:37;16.40;96.00
25450;DHT22;13371;52.080;5.624;2023-04-21T12:18:11;15.70;96.50
25450;DHT22;13371;52.080;5.624;2023-04-21T12:20:50;16.20;97.30
25450;DHT22;13371;52.080;5.624;2023-04-21T12:23:18;15.70;97.80
25450;DHT22;13371;52.080;5.624;2023-04-21T12:25:46;16.20;97.40
25450;DHT22;13371;52.080;5.624;2023-04-21T12:28:18;16.10;96.30
25450;DHT22;13371;52.080;5.624;2023-04-21T12:30:46;16.40;96.80
25450;DHT22;13371;52.080;5.624;2023-04-21T12:33:12;16.60;96.10
25450;DHT22;13371;52.080;5.624;2023-04-21T12:35:41;16.00;97.10
25450;DHT22;13371;52.080;5.624;2023-04-21T12:38:19;16.20;97.20
25450;DHT22;13371;52.080;5.624;2023-04-21T12:40:48;16.50;96.20
25450;DHT22;13371;52.080;5.624;2023-04-21T12:43:17;16.70;95.10
25450;DHT22;13371;52.080;5.624;2023-04-21T12:45:46;16.60;94.90
25450;DHT22;13371;52.080;5.624;2023-04-21T12:48:23;16.50;95.80
25450;DHT22;13371;52.080;5.624;2023-04-21T12:51:03;16.40;95.30
25450;DHT22;13371;52.080;5.624;2023-04-21T12:53:34;16.10;96.00
25450;DHT22;13371;52.080;5.624;2023-04-21T12:56:14;16.50;96.00
25450;DHT22;13371;52.080;5.624;2023-04-21T12:58:45;17.10;95.50
25450;DHT22;13371;52.080;5.624;2023-04-21T13:01:12;16.60;95.60
25450;DHT22;13371;52.080;5.624;2023-04-21T13:03:43;16.60;95.90
25450;DHT22;13371;52.080;5.624;2023-04-21T13:06:14;16.40;96.10
25450;DHT22;13371;52.080;5.624;2023-04-21T13:08:59;16.50;95.90
25450;DHT22;13371;52.080;5.624;2023-04-21T13:11:27;16.30;96.30
25450;DHT22;13371;52.080;5.624;2023-04-21T13:13:53;16.20;97.80
25450;DHT22;13371;52.080;5.624;2023-04-21T13:16:19;17.00;97.40
25450;DHT22;13371;52.080;5.624;2023-04-21T13:18:48;17.50;96.30
25450;DHT22;13371;52.080;5.624;2023-04-21T13:21:13;17.50;94.50
25450;DHT22;13371;52.080;5.624;2023-04-21T13:23:39;17.60;95.00
25450;DHT22;13371;52.080;5.624;2023-04-21T13:26:06;17.50;94.70
25450;DHT22;13371;52.080;5.624;2023-04-21T13:28:32;17.40;95.80
25450;DHT22;13371;52.080;5.624;2023-04-21T13:30:58;17.50;94.90
25450;DHT22;13371;52.080;5.624;2023-04-21T13:33:24;17.90;94.60
25450;DHT22;13371;52.080;5.624;2023-04-21T13:35:50;18.10;93.70
25450;DHT22;13371;52.080;5.624;2023-04-21T13:38:16;18.30;93.30
25450;DHT22;13371;52.080;5.624;2023-04-21T13:40:42;18.10;93.20
25450;DHT22;13371;52.080;5.624;2023-04-21T13:43:08;18.10;93.70
25450;DHT22;13371;52.080;5.624;2023-04-21T13:45:33;17.50;93.90
25450;DHT22;13371;52.080;5.624;2023-04-21T13:48:05;17.30;94.70
25450;DHT22;13371;52.080;5.624;2023-04-21T13:50:31;17.70;92.80
25450;DHT22;13371;52.080;5.624;2023-04-21T13:53:00;17.90;93.10
25450;DHT22;13371;52.080;5.624;2023-04-21T13:55:26;18.20;92.60
25450;DHT22;13371;52.080;5.624;2023-04-21T13:57:57;18.30;91.80
25450;DHT22;13371;52.080;5.624;2023-04-21T14:00:23;18.30;91.90
25450;DHT22;13371;52.080;5.624;2023-04-21T14:02:54;18.40;91.60
25450;DHT22;13371;52.080;5.624;2023-04-21T14:05:20;18.60;91.60
25450;DHT22;13371;52.080;5.624;2023-04-21T14:07:55;18.60;92.60
25450;DHT22;13371;52.080;5.624;2023-04-21T14:10:23;17.90;91.80
25450;DHT22;13371;52.080;5.624;2023-04-21T14:12:51;17.80;92.10
25450;DHT22;13371;52.080;5.624;2023-04-21T14:15:24;18.00;91.40
25450;DHT22;13371;52.080;5.624;2023-04-21T14:17:51;18.10;91.80
25450;DHT22;13371;52.080;5.624;2023-04-21T14:20:17;18.00;92.20
25450;DHT22;13371;52.080;5.624;2023-04-21T14:22:43;18.00;91.60
25450;DHT22;13371;52.080;5.624;2023-04-21T14:25:11;18.10;91.70
25450;DHT22;13371;52.080;5.624;2023-04-21T14:27:40;18.40;91.50
25450;DHT22;13371;52.080;5.624;2023-04-21T14:30:06;18.70;91.20
25450;DHT22;13371;52.080;5.624;2023-04-21T14:32:35;19.10;89.40
25450;DHT22;13371;52.080;5.624;2023-04-21T14:35:01;18.60;90.30
25450;DHT22;13371;52.080;5.624;2023-04-21T14:37:31;18.30;90.70
25450;DHT22;13371;52.080;5.624;2023-04-21T14:39:57;17.70;91.80
25450;DHT22;13371;52.080;5.624;2023-04-21T14:42:23;17.80;92.80
25450;DHT22;13371;52.080;5.624;2023-04-21T14:44:48;17.90;91.30
25450;DHT22;13371;52.080;5.624;2023-04-21T14:47:17;18.00;91.10
25450;DHT22;13371;52.080;5.624;2023-04-21T14:49:43;17.00;93.00
25450;DHT22;13371;52.080;5.624;2023-04-21T14:52:14;17.10;93.10
25450;DHT22;13371;52.080;5.624;2023-04-21T14:54:40;17.10;93.00
25450;DHT22;13371;52.080;5.624;2023-04-21T14:57:05;17.30;93.10
25450;DHT22;13371;52.080;5.624;2023-04-21T14:59:34;17.00;93.40
25450;DHT22;13371;52.080;5.624;2023-04-21T15:01:59;17.30;93.50
25450;DHT22;13371;52.080;5.624;2023-04-21T15:04:28;17.90;92.80
25450;DHT22;13371;52.080;5.624;2023-04-21T15:06:54;18.30;92.00
25450;DHT22;13371;52.080;5.624;2023-04-21T15:09:23;18.50;91.60
25450;DHT22;13371;52.080;5.624;2023-04-21T15:11:49;18.40;92.40
25450;DHT22;13371;52.080;5.624;2023-04-21T15:14:15;18.40;92.10
25450;DHT22;13371;52.080;5.624;2023-04-21T15:16:41;18.70;91.70
25450;DHT22;13371;52.080;5.624;2023-04-21T15:19:06;18.90;91.00
25450;DHT22;13371;52.080;5.624;2023-04-21T15:21:35;18.70;92.30
25450;DHT22;13371;52.080;5.624;2023-04-21T15:24:04;18.80;91.20
25450;DHT22;13371;52.080;5.624;2023-04-21T15:26:29;19.00;90.90
25450;DHT22;13371;52.080;5.624;2023-04-21T15:28:55;18.90;91.20
25450;DHT22;13371;52.080;5.624;2023-04-21T15:31:22;19.00;90.20
25450;DHT22;13371;52.080;5.624;2023-04-21T15:34:11;18.20;90.80
25450;DHT22;13371;52.080;5.624;2023-04-21T15:37:09;17.90;91.70
25450;DHT22;13371;52.080;5.624;2023-04-21T15:39:46;18.10;92.00
25450;DHT22;13371;52.080;5.624;2023-04-21T15:42:11;18.40;91.50
25450;DHT22;13371;52.080;5.624;2023-04-21T15:44:37;18.30;91.10
25450;DHT22;13371;52.080;5.624;2023-04-21T15:47:04;18.50;91.50
25450;DHT22;13371;52.080;5.624;2023-04-21T15:49:29;18.30;90.90
25450;DHT22;13371;52.080;5.624;2023-04-21T15:52:01;18.80;91.70
25450;DHT22;13371;52.080;5.624;2023-04-21T15:54:28;19.20;90.40
25450;DHT22;13371;52.080;5.624;2023-04-21T15:56:55;19.30;90.30
25450;DHT22;13371;52.080;5.624;2023-04-21T15:59:22;19.40;90.30
25450;DHT22;13371;52.080;5.624;2023-04-21T16:01:47;18.30;90.30
25450;DHT22;13371;52.080;5.624;2023-04-21T16:04:14;18.10;92.20
25450;DHT22;13371;52.080;5.624;2023-04-21T16:06:39;18.40;91.50
25450;DHT22;13371;52.080;5.624;2023-04-21T16:09:08;18.50;90.80
25450;DHT22;13371;52.080;5.624;2023-04-21T16:11:38;19.10;90.50
25450;DHT22;13371;52.080;5.624;2023-04-21T16:14:04;18.90;90.40
25450;DHT22;13371;52.080;5.624;2023-04-21T16:16:30;18.90;91.00
25450;DHT22;13371;52.080;5.624;2023-04-21T16:18:55;19.20;89.40
25450;DHT22;13371;52.080;5.624;2023-04-21T16:21:29;18.70;90.30
25450;DHT22;13371;52.080;5.624;2023-04-21T16:23:56;18.50;90.60
25450;DHT22;13371;52.080;5.624;2023-04-21T16:26:34;18.30;90.70
25450;DHT22;13371;52.080;5.624;2023-04-21T16:29:00;18.50;90.90
25450;DHT22;13371;52.080;5.624;2023-04-21T16:31:26;18.60;90.90
25450;DHT22;13371;52.080;5.624;2023-04-21T16:33:51;18.50;90.80
25450;DHT22;13371;52.080;5.624;2023-04-21T16:36:17;18.50;90.60
25450;DHT22;13371;52.080;5.624;2023-04-21T16:38:46;18.80;90.60
25450;DHT22;13371;52.080;5.624;2023-04-21T16:41:15;18.90;90.20
25450;DHT22;13371;52.080;5.624;2023-04-21T16:43:42;19.30;90.10
25450;DHT22;13371;52.080;5.624;2023-04-21T16:46:07;19.50;89.10
25450;DHT22;13371;52.080;5.624;2023-04-21T16:48:33;19.30;89.50
25450;DHT22;13371;52.080;5.624;2023-04-21T16:50:58;19.00;90.20
25450;DHT22;13371;52.080;5.624;2023-04-21T16:53:24;18.70;89.10
25450;DHT22;13371;52.080;5.624;2023-04-21T16:55:50;18.70;89.80
25450;DHT22;13371;52.080;5.624;2023-04-21T16:58:16;19.20;90.10
25450;DHT22;13371;52.080;5.624;2023-04-21T17:00:42;19.10;89.10
25450;DHT22;13371;52.080;5.624;2023-04-21T17:03:07;18.70;90.70
25450;DHT22;13371;52.080;5.624;2023-04-21T17:05:33;19.10;90.10
25450;DHT22;13371;52.080;5.624;2023-04-21T17:11:02;19.40;87.90
25450;DHT22;13371;52.080;5.624;2023-04-21T17:13:27;19.10;90.00
25450;DHT22;13371;52.080;5.624;2023-04-21T17:15:53;19.30;89.20
25450;DHT22;13371;52.080;5.624;2023-04-21T17:18:19;19.60;87.60
25450;DHT22;13371;52.080;5.624;2023-04-21T17:20:45;19.50;87.80
25450;DHT22;13371;52.080;5.624;2023-04-21T17:23:11;18.60;89.70
25450;DHT22;13371;52.080;5.624;2023-04-21T17:25:37;18.20;91.40
25450;DHT22;13371;52.080;5.624;2023-04-21T17:28:03;18.40;90.80
25450;DHT22;13371;52.080;5.624;2023-04-21T17:30:32;18.80;90.10
25450;DHT22;13371;52.080;5.624;2023-04-21T17:33:00;19.40;90.00
25450;DHT22;13371;52.080;5.624;2023-04-21T17:35:25;19.10;88.60
25450;DHT22;13371;52.080;5.624;2023-04-21T17:37:51;19.50;88.20
25450;DHT22;13371;52.080;5.624;2023-04-21T17:40:20;19.30;88.40
25450;DHT22;13371;52.080;5.624;2023-04-21T17:42:46;18.70;89.70
25450;DHT22;13371;52.080;5.624;2023-04-21T17:47:48;19.10;90.00
25450;DHT22;13371;52.080;5.624;2023-04-21T17:50:14;19.30;89.20
25450;DHT22;13371;52.080;5.624;2023-04-21T17:52:40;19.30;88.40
25450;DHT22;13371;52.080;5.624;2023-04-21T17:55:06;19.20;88.70
25450;DHT22;13371;52.080;5.624;2023-04-21T17:57:32;19.30;88.10
25450;DHT22;13371;52.080;5.624;2023-04-21T18:00:01;18.60;91.30
25450;DHT22;13371;52.080;5.624;2023-04-21T18:02:31;16.90;95.10
25450;DHT22;13371;52.080;5.624;2023-04-21T18:04:56;17.00;96.80
25450;DHT22;13371;52.080;5.624;2023-04-21T18:07:22;16.40;96.00
25450;DHT22;13371;52.080;5.624;2023-04-21T18:09:50;15.10;96.80
25450;DHT22;13371;52.080;5.624;2023-04-21T18:12:15;14.40;97.70
25450;DHT22;13371;52.080;5.624;2023-04-21T18:14:43;13.90;97.60
25450;DHT22;13371;52.080;5.624;2023-04-21T18:17:24;13.50;97.60
25450;DHT22;13371;52.080;5.624;2023-04-21T18:19:55;12.80;97.90
25450;DHT22;13371;52.080;5.624;2023-04-21T18:22:20;12.10;99.90
25450;DHT22;13371;52.080;5.624;2023-04-21T18:24:46;12.80;99.90
25450;DHT22;13371;52.080;5.624;2023-04-21T18:27:12;12.90;99.90
25450;DHT22;13371;52.080;5.624;2023-04-21T18:29:38;13.00;99.90
25450;DHT22;13371;52.080;5.624;2023-04-21T18:32:04;13.00;99.90
25450;DHT22;13371;52.080;5.624;2023-04-21T18:34:29;12.30;99.90
25450;DHT22;13371;52.080;5.624;2023-04-21T18:36:55;12.80;99.90
25450;DHT22;13371;52.080;5.624;2023-04-21T18:39:20;13.10;99.90
25450;DHT22;13371;52.080;5.624;2023-04-21T18:41:46;13.20;99.90
25450;DHT22;13371;52.080;5.624;2023-04-21T18:44:17;13.10;99.90
25450;DHT22;13371;52.080;5.624;2023-04-21T18:46:43;13.10;99.90
25450;DHT22;13371;52.080;5.624;2023-04-21T18:49:09;13.30;99.90
25450;DHT22;13371;52.080;5.624;2023-04-21T18:51:34;13.50;99.90
25450;DHT22;13371;52.080;5.624;2023-04-21T18:54:00;13.80;99.90
25450;DHT22;13371;52.080;5.624;2023-04-21T18:56:26;14.10;99.90
25450;DHT22;13371;52.080;5.624;2023-04-21T18:58:52;14.30;99.90
25450;DHT22;13371;52.080;5.624;2023-04-21T19:01:17;14.20;99.70
25450;DHT22;13371;52.080;5.624;2023-04-21T19:03:43;14.20;99.90
25450;DHT22;13371;52.080;5.624;2023-04-21T19:06:09;14.20;99.90